Time;durP1;ratioP1;P1;durP2;ratioP2;P2;SDS_P1;SDS_P2;PMS_P1;PMS_P2;Temp;Humidity;BMP_temperature;BMP_pressure;BME280_temperature;BME280_humidity;BME280_pressure;Samples;Min_cycle;Max_cycle;Signal;HPM_P1;HPM_P2
2022/09/10 08:24:41;;;;;;;;;;;;;;;20.58;64.85;97116.69;4265133;27;10338;-68
2022/09/10 08:26:44;;;;;;;;;;;;;;;20.89;64.65;97125.94;4246515;27;5645;-68
2022/09/10 08:28:47;;;;;;;;;;;;;;;21.12;63.81;97124.06;4246936;27;5653;-68
2022/09/10 08:30:57;;;;;;;;;;;;;;;21.31;63.50;97127.25;4238625;27;5103;-66
2022/09/10 08:33:00;;;;;;;;;;;;;;;21.45;62.82;97123.91;4229988;27;5838;-67
2022/09/10 08:35:03;;;;;;;;;;;;;;;21.55;62.62;97127.75;4240793;27;5653;-68
2022/09/10 08:37:06;;;;;;;;;;;;;;;21.62;62.19;97122.97;4241840;27;5705;-67
2022/09/10 08:39:09;;;;;;;;;;;;;;;21.68;61.59;97121.97;4233216;27;5670;-68
2022/09/10 08:41:24;;;;;;;;;;;;;;;21.73;61.75;97127.38;4242863;27;5741;-68
2022/09/10 08:43:33;;;;;;;;;;;;;;;21.81;61.34;97137.66;4242802;27;5796;-68
2022/09/10 08:45:37;;;;;;;;;;;;;;;21.89;61.18;97139.91;4243451;27;5776;-68
2022/09/10 08:47:52;;;;;;;;;;;;;;;21.93;60.84;97140.19;4243179;27;5668;-68
2022/09/10 08:49:57;;;;;;;;;;;;;;;21.97;60.53;97139.44;4240962;27;5673;-77
2022/09/10 08:52:05;;;;;;;;;;;;;;;21.98;60.50;97138.38;4235315;27;5878;-85
2022/09/10 08:54:14;;;;;;;;;;;;;;;22.02;59.99;97141.34;4246729;27;5664;-76
2022/09/10 08:56:21;;;;;;;;;;;;;;;22.05;59.60;97138.13;4242170;27;5712;-78
2022/09/10 08:58:29;;;;;;;;;;;;;;;22.07;59.48;97136.84;4245046;27;5728;-69
2022/09/10 09:00:36;;;;;;;;;;;;;;;22.13;59.64;97136.88;4240503;27;5670;-72
2022/09/10 09:02:47;;;;;;;;;;;;;;;22.12;59.27;97138.75;4233717;27;5839;-71
2022/09/10 09:04:57;;;;;;;;;;;;;;;22.11;59.10;97147.09;4231662;27;5768;-70
2022/09/10 09:07:03;;;;;;;;;;;;;;;22.07;58.86;97149.47;4232964;27;5665;-76
2022/09/10 09:09:06;;;;;;;;;;;;;;;22.06;58.96;97140.59;4238697;27;5731;-66
2022/09/10 09:11:22;;;;;;;;;;;;;;;22.07;58.49;97136.84;4239452;27;5709;-66
2022/09/10 09:14:02;;;;;;;;;;;;;;;22.07;58.01;97133.31;4233726;27;5637;-66
2022/09/10 09:16:26;;;;;;;;;;;;;;;22.08;58.09;97132.25;4244498;27;5652;-65
2022/09/10 09:18:38;;;;;;;;;;;;;;;22.06;57.76;97135.22;4235527;27;5687;-66
2022/09/10 09:20:45;;;;;;;;;;;;;;;22.07;57.86;97134.13;4237685;27;5821;-65
2022/09/10 09:23:07;;;;;;;;;;;;;;;22.10;57.62;97137.41;4247282;27;5808;-65
2022/09/10 09:25:21;;;;;;;;;;;;;;;22.11;57.41;97134.44;4238892;27;5648;-65
2022/09/10 09:27:29;;;;;;;;;;;;;;;22.15;56.93;97137.44;4236397;28;5656;-65
2022/09/10 09:29:36;;;;;;;;;;;;;;;22.18;57.16;97129.63;4235795;28;6977;-66
2022/09/10 09:31:42;;;;;;;;;;;;;;;22.21;56.63;97128.34;4235891;28;5656;-65
2022/09/10 09:33:48;;;;;;;;;;;;;;;22.25;56.75;97140.19;4234819;28;5679;-66
2022/09/10 09:35:56;;;;;;;;;;;;;;;22.28;56.34;97132.41;4236360;27;5829;-65
2022/09/10 09:38:15;;;;;;;;;;;;;;;22.31;56.37;97131.91;4236180;28;5644;-65
2022/09/10 09:40:29;;;;;;;;;;;;;;;22.34;56.38;97123.31;4235680;28;5732;-65
2022/09/10 09:42:40;;;;;;;;;;;;;;;22.36;56.27;97123.84;4235908;28;5659;-65
2022/09/10 09:44:49;;;;;;;;;;;;;;;22.39;55.73;97130.59;4235625;28;5657;-65
2022/09/10 09:46:58;;;;;;;;;;;;;;;22.40;55.77;97131.41;4234527;28;5608;-65
2022/09/10 09:49:02;;;;;;;;;;;;;;;22.40;55.92;97131.41;4235509;27;5736;-65
2022/09/10 09:51:08;;;;;;;;;;;;;;;22.41;55.91;97128.44;4235887;28;5057;-65
2022/09/10 09:53:17;;;;;;;;;;;;;;;22.44;55.79;97125.25;4235593;28;5822;-65
2022/09/10 09:55:28;;;;;;;;;;;;;;;22.47;55.26;97129.28;4218712;28;6536;-65
2022/09/10 09:57:30;;;;;;;;;;;;;;;22.48;55.10;97128.22;4218817;28;5772;-65
2022/09/10 09:59:36;;;;;;;;;;;;;;;22.50;54.88;97118.78;4233268;28;5642;-65
2022/09/10 10:01:41;;;;;;;;;;;;;;;22.50;55.09;97118.78;4235742;28;5790;-64
2022/09/10 10:03:50;;;;;;;;;;;;;;;22.49;54.86;97122.56;4235889;28;5665;-65
2022/09/10 10:06:01;;;;;;;;;;;;;;;22.51;54.68;97112.34;4235545;28;5707;-65
2022/09/10 10:08:04;;;;;;;;;;;;;;;22.54;54.34;97111.03;4235513;28;5734;-64
2022/09/10 10:10:20;;;;;;;;;;;;;;;22.57;54.42;97116.69;4235366;28;5653;-66
2022/09/10 10:12:23;;;;;;;;;;;;;;;22.61;54.38;97120.47;4235124;28;5672;-66
2022/09/10 10:14:37;;;;;;;;;;;;;;;22.61;54.12;97115.09;4235009;28;5660;-66
2022/09/10 10:16:39;;;;;;;;;;;;;;;22.60;53.70;97110.78;4235622;28;5676;-66
2022/09/10 10:18:43;;;;;;;;;;;;;;;22.60;53.64;97113.47;4235370;28;5084;-66
2022/09/10 10:20:45;;;;;;;;;;;;;;;22.61;53.45;97107.00;4235033;28;5801;-65
2022/09/10 10:22:48;;;;;;;;;;;;;;;22.62;53.35;97107.81;4234917;28;5665;-66
2022/09/10 10:24:52;;;;;;;;;;;;;;;22.64;52.95;97098.38;4234796;28;5736;-65
2022/09/10 10:26:55;;;;;;;;;;;;;;;22.70;52.83;97103.81;4233211;28;5099;-66
2022/09/10 10:29:04;;;;;;;;;;;;;;;22.72;53.13;97098.97;4234425;28;5656;-66
2022/09/10 10:31:08;;;;;;;;;;;;;;;22.74;52.58;97094.13;4233700;28;5698;-66
2022/09/10 10:33:18;;;;;;;;;;;;;;;22.77;52.56;97089.03;4233456;28;5851;-66
2022/09/10 10:35:34;;;;;;;;;;;;;;;22.80;52.29;97090.38;4235319;28;5747;-66
2022/09/10 10:37:47;;;;;;;;;;;;;;;22.78;52.17;97085.25;4234345;28;5645;-66
2022/09/10 10:40:06;;;;;;;;;;;;;;;22.77;52.28;97082.84;4234646;28;5731;-66
2022/09/10 10:42:19;;;;;;;;;;;;;;;22.79;51.82;97084.19;4235007;28;5680;-66
2022/09/10 10:44:35;;;;;;;;;;;;;;;22.85;51.72;97088.53;4234584;28;5669;-66
2022/09/10 10:46:48;;;;;;;;;;;;;;;22.85;51.70;97079.63;4235079;28;5656;-66
2022/09/10 10:49:18;;;;;;;;;;;;;;;22.85;51.34;97088.53;4234727;28;5719;-65
2022/09/10 10:51:32;;;;;;;;;;;;;;;22.88;51.18;97085.34;4234799;28;5739;-66
2022/09/10 10:54:01;;;;;;;;;;;;;;;22.93;51.17;97079.13;4234568;28;5644;-66
2022/09/10 10:56:12;;;;;;;;;;;;;;;22.97;51.04;97077.53;4228526;28;5637;-65
2022/09/10 10:58:35;;;;;;;;;;;;;;;22.96;50.66;97078.59;4234564;27;5677;-66
2022/09/10 11:00:42;;;;;;;;;;;;;;;22.94;50.38;97075.34;4234384;28;5656;-65
2022/09/10 11:02:53;;;;;;;;;;;;;;;22.92;50.40;97072.13;4234333;28;5641;-65
2022/09/10 11:05:01;;;;;;;;;;;;;;;22.91;50.52;97074.00;4234630;28;5645;-66
2022/09/10 11:07:09;;;;;;;;;;;;;;;22.93;50.33;97068.34;4234760;27;5656;-66
2022/09/10 11:09:22;;;;;;;;;;;;;;;22.90;50.33;97072.41;4233671;28;5752;-65
2022/09/10 11:11:30;;;;;;;;;;;;;;;22.91;49.81;97081.28;4234610;27;5652;-65
2022/09/10 11:13:40;;;;;;;;;;;;;;;22.90;49.63;97079.69;4234209;28;6417;-65
2022/09/10 11:15:49;;;;;;;;;;;;;;;22.92;49.54;97072.13;4228586;28;5765;-65
2022/09/10 11:18:02;;;;;;;;;;;;;;;22.96;49.73;97073.22;4217499;28;5709;-65
2022/09/10 11:20:12;;;;;;;;;;;;;;;22.96;49.22;97067.81;4217432;28;5674;-66
2022/09/10 11:22:35;;;;;;;;;;;;;;;22.93;49.26;97068.34;4233899;28;5689;-66
2022/09/10 11:24:43;;;;;;;;;;;;;;;22.95;49.05;97058.09;4225211;28;5651;-66
2022/09/10 11:26:50;;;;;;;;;;;;;;;23.00;49.36;97068.91;4232864;28;5597;-65
2022/09/10 11:29:00;;;;;;;;;;;;;;;23.03;49.26;97062.19;4233761;28;5729;-65
2022/09/10 11:31:11;;;;;;;;;;;;;;;23.05;48.76;97058.13;4234345;28;5644;-66
2022/09/10 11:33:22;;;;;;;;;;;;;;;23.07;49.12;97057.88;4234066;28;5660;-66
2022/09/10 11:35:29;;;;;;;;;;;;;;;23.09;48.78;97066.50;4234114;28;5644;-66
2022/09/10 11:37:49;;;;;;;;;;;;;;;23.11;48.92;97064.38;4233987;28;5724;-66
2022/09/10 11:39:58;;;;;;;;;;;;;;;23.15;48.30;97060.84;4233999;28;5640;-66
2022/09/10 11:42:07;;;;;;;;;;;;;;;23.19;48.50;97059.25;4233857;28;6761;-66
2022/09/10 11:44:26;;;;;;;;;;;;;;;23.22;48.48;97064.13;4221865;28;5813;-65
2022/09/10 11:46:33;;;;;;;;;;;;;;;23.22;48.41;97061.41;4216858;28;5673;-65
2022/09/10 11:48:42;;;;;;;;;;;;;;;23.27;48.18;97067.88;4218572;28;5810;-65
2022/09/10 11:50:51;;;;;;;;;;;;;;;23.27;47.76;97073.28;4223487;28;5685;-65
2022/09/10 11:52:55;;;;;;;;;;;;;;;23.26;47.48;97067.09;4217454;28;7374;-65
2022/09/10 11:54:58;;;;;;;;;;;;;;;23.26;47.62;97066.28;4224136;28;5678;-65
2022/09/10 11:57:05;;;;;;;;;;;;;;;23.24;47.45;97063.84;4220924;28;5849;-66
2022/09/10 11:59:23;;;;;;;;;;;;;;;23.25;47.70;97070.84;4218787;28;5847;-70
2022/09/10 12:01:42;;;;;;;;;;;;;;;23.27;47.25;97074.09;4220172;28;5662;-70
2022/09/10 12:04:13;;;;;;;;;;;;;;;23.28;47.15;97069.50;4224854;28;5981;-68
2022/09/10 12:06:22;;;;;;;;;;;;;;;23.23;47.11;97076.53;4231904;28;5711;-70
2022/09/10 12:08:37;;;;;;;;;;;;;;;23.21;47.08;97070.56;4233680;28;5743;-69
2022/09/10 12:10:52;;;;;;;;;;;;;;;23.22;46.84;97071.41;4233492;28;5661;-69
2022/09/10 12:12:54;;;;;;;;;;;;;;;23.20;46.77;97065.44;4229613;28;5697;-69
2022/09/10 12:14:58;;;;;;;;;;;;;;;23.19;46.92;97071.91;4222374;28;5729;-69
2022/09/10 12:17:07;;;;;;;;;;;;;;;23.18;47.18;97071.09;4228142;28;5873;-69
2022/09/10 12:19:23;;;;;;;;;;;;;;;23.15;46.73;97060.84;4233501;28;5727;-70
2022/09/10 12:21:32;;;;;;;;;;;;;;;23.15;46.80;97060.06;4233198;28;5916;-70
2022/09/10 12:23:39;;;;;;;;;;;;;;;23.14;46.79;97066.53;4232930;28;5926;-70
2022/09/10 12:25:42;;;;;;;;;;;;;;;23.11;46.68;97059.78;4233032;28;7716;-70
2022/09/10 12:27:47;;;;;;;;;;;;;;;23.12;46.51;97072.19;4232906;28;5657;-71
2022/09/10 12:29:50;;;;;;;;;;;;;;;23.14;46.36;97063.81;4231952;28;5805;-70
2022/09/10 12:32:35;;;;;;;;;;;;;;;23.16;46.21;97056.28;4231045;28;5682;-70
2022/09/10 12:34:40;;;;;;;;;;;;;;;23.15;46.26;97060.84;4231908;28;5644;-71
2022/09/10 12:37:13;;;;;;;;;;;;;;;23.16;46.06;97061.66;4229471;28;6471;-72
2022/09/10 12:39:23;;;;;;;;;;;;;;;23.18;46.42;97054.13;4232209;28;5655;-72
2022/09/10 12:41:55;;;;;;;;;;;;;;;23.17;46.25;97049.81;4220297;28;5680;-71
2022/09/10 12:43:59;;;;;;;;;;;;;;;23.16;46.04;97051.69;4224449;28;5637;-70
2022/09/10 12:46:16;;;;;;;;;;;;;;;23.19;46.19;97055.72;4228516;28;5875;-69
2022/09/10 12:48:19;;;;;;;;;;;;;;;23.19;45.87;97051.16;4227217;28;5831;-70
2022/09/10 12:50:44;;;;;;;;;;;;;;;23.22;45.93;97057.91;4218871;27;5760;-70
2022/09/10 12:53:03;;;;;;;;;;;;;;;23.22;45.89;97050.63;4226440;28;5673;-70
2022/09/10 12:55:20;;;;;;;;;;;;;;;23.26;45.68;97050.09;4220629;28;5670;-70
2022/09/10 12:57:35;;;;;;;;;;;;;;;23.26;45.32;97042.00;4221659;28;5653;-70
2022/09/10 13:00:11;;;;;;;;;;;;;;;23.27;45.16;97047.13;4220928;28;5662;-70
2022/09/10 13:02:27;;;;;;;;;;;;;;;23.28;45.07;97043.34;4229806;28;5600;-69
2022/09/10 13:04:34;;;;;;;;;;;;;;;23.28;45.19;97048.75;4230193;28;5675;-69
2022/09/10 13:06:41;;;;;;;;;;;;;;;23.30;44.88;97049.28;4219039;28;5670;-69
2022/09/10 13:08:46;;;;;;;;;;;;;;;23.34;45.03;97044.19;4231343;28;5680;-69
2022/09/10 13:11:08;;;;;;;;;;;;;;;23.35;44.73;97054.69;4225965;28;5670;-69
2022/09/10 13:13:32;;;;;;;;;;;;;;;23.35;44.86;97043.91;4221172;28;5746;-69
2022/09/10 13:15:38;;;;;;;;;;;;;;;23.36;44.77;97045.53;4226768;28;5661;-69
2022/09/10 13:18:23;;;;;;;;;;;;;;;23.39;44.70;97044.97;4231767;28;5771;-69
2022/09/10 13:20:31;;;;;;;;;;;;;;;23.41;44.71;97044.69;4191972;28;5688;-69
2022/09/10 13:23:04;;;;;;;;;;;;;;;23.40;44.62;97041.19;4189630;28;5692;-70
2022/09/10 13:25:26;;;;;;;;;;;;;;;23.34;44.36;97044.97;4189121;28;5646;-70
2022/09/10 13:27:38;;;;;;;;;;;;;;;23.33;44.39;97037.97;4192592;28;5792;-70
2022/09/10 13:29:44;;;;;;;;;;;;;;;23.36;44.07;97042.00;4194280;28;5753;-70
2022/09/10 13:31:56;;;;;;;;;;;;;;;23.38;44.42;97042.53;4197386;28;5768;-66
2022/09/10 13:35:03;;;;;;;;;;;;;;;23.38;44.06;97040.66;4175296;28;5912;-67
2022/09/10 13:37:25;;;;;;;;;;;;;;;23.36;43.89;97037.44;4196215;28;5661;-69
2022/09/10 13:39:58;;;;;;;;;;;;;;;23.36;44.05;97039.31;4197505;28;5929;-69
2022/09/10 13:42:25;;;;;;;;;;;;;;;23.35;43.78;97032.31;4196264;28;5757;-69
2022/09/10 13:44:47;;;;;;;;;;;;;;;23.33;43.85;97037.97;4195246;28;5669;-69
2022/09/10 13:46:52;;;;;;;;;;;;;;;;;;4197746;28;5662;-69
2022/09/10 13:49:05;;;;;;;;;;;;;;;23.31;43.43;97033.91;4195336;28;5891;-70
2022/09/10 13:51:17;;;;;;;;;;;;;;;23.28;43.57;97031.75;4192665;28;6883;-70
2022/09/10 13:53:21;;;;;;;;;;;;;;;23.24;43.38;97026.91;4197463;28;5645;-69
2022/09/10 13:55:27;;;;;;;;;;;;;;;23.23;43.35;97030.66;4197322;28;5689;-70
2022/09/10 13:57:33;;;;;;;;;;;;;;;23.24;43.62;97026.91;4228935;28;5633;-69
2022/09/10 13:59:38;;;;;;;;;;;;;;;23.28;43.47;97024.47;4222714;28;5667;-70
2022/09/10 14:01:48;;;;;;;;;;;;;;;23.32;43.57;97027.44;4223244;28;5752;-69
2022/09/10 14:03:51;;;;;;;;;;;;;;;23.30;43.18;97025.00;4225133;28;5739;-69
2022/09/10 14:05:57;;;;;;;;;;;;;;;23.31;43.20;97023.09;4224698;28;5658;-69
2022/09/10 14:08:05;;;;;;;;;;;;;;;23.33;43.34;97023.66;4230994;28;5859;-69
2022/09/10 14:10:08;;;;;;;;;;;;;;;23.36;43.30;97028.53;4227132;28;6941;-71
2022/09/10 14:12:14;;;;;;;;;;;;;;;23.37;43.23;97025.56;4230783;28;5732;-69
2022/09/10 14:14:21;;;;;;;;;;;;;;;23.40;43.35;97025.00;4231745;28;5652;-69
2022/09/10 14:16:30;;;;;;;;;;;;;;;23.40;43.23;97008.00;4228371;28;5716;-68
2022/09/10 14:18:42;;;;;;;;;;;;;;;23.39;42.98;97007.22;4225535;28;5817;-69
2022/09/10 14:20:45;;;;;;;;;;;;;;;23.40;42.96;97021.50;4230514;28;5823;-69
2022/09/10 14:22:48;;;;;;;;;;;;;;;23.38;42.97;97019.06;4226995;28;5645;-69
2022/09/10 14:24:53;;;;;;;;;;;;;;;23.36;43.15;97012.34;4222890;28;5747;-69
2022/09/10 14:27:07;;;;;;;;;;;;;;;23.37;42.96;97025.56;4226580;28;5778;-69
2022/09/10 14:29:24;;;;;;;;;;;;;;;23.36;42.95;97023.94;4225099;28;5674;-70
2022/09/10 14:31:30;;;;;;;;;;;;;;;23.35;43.14;97021.50;4225039;28;5906;-69
2022/09/10 14:33:35;;;;;;;;;;;;;;;23.34;42.84;97019.91;4232582;28;5692;-69
2022/09/10 14:35:41;;;;;;;;;;;;;;;23.34;42.60;97019.91;4220078;27;5661;-69
2022/09/10 14:37:44;;;;;;;;;;;;;;;23.35;42.73;97021.50;4229846;28;5652;-69
2022/09/10 14:39:47;;;;;;;;;;;;;;;23.37;42.91;97024.75;4227014;28;6346;-70
2022/09/10 14:42:09;;;;;;;;;;;;;;;23.38;42.84;97020.97;4225248;28;5778;-70
2022/09/10 14:44:28;;;;;;;;;;;;;;;23.40;42.88;97019.59;4230850;28;5781;-76
2022/09/10 14:46:50;;;;;;;;;;;;;;;23.42;42.42;97019.34;4228768;28;6779;-75
2022/09/10 14:49:07;;;;;;;;;;;;;;;23.41;42.51;97020.41;4228216;28;6588;-75
2022/09/10 14:51:16;;;;;;;;;;;;;;;23.42;42.74;97022.03;4241655;27;5602;-76
2022/09/10 14:53:19;;;;;;;;;;;;;;;23.37;42.27;97011.25;4229731;27;5844;-76
2022/09/10 14:55:24;;;;;;;;;;;;;;;23.36;42.27;97012.34;4231121;28;5801;-75
2022/09/10 14:57:27;;;;;;;;;;;;;;;23.32;42.48;97011.25;4225778;28;5666;-75
2022/09/10 14:59:35;;;;;;;;;;;;;;;23.30;42.17;97019.59;4225136;28;5677;-76
2022/09/10 15:01:40;;;;;;;;;;;;;;;23.29;42.64;97004.50;4222480;28;5666;-75
2022/09/10 15:03:43;;;;;;;;;;;;;;;23.28;42.14;97010.97;4229588;28;5712;-75
2022/09/10 15:05:46;;;;;;;;;;;;;;;23.25;42.43;97011.53;4226535;28;5665;-69
2022/09/10 15:07:49;;;;;;;;;;;;;;;23.26;42.26;97013.13;4229648;28;5832;-72
2022/09/10 15:09:52;;;;;;;;;;;;;;;23.27;42.31;97013.94;4229768;28;5657;-72
2022/09/10 15:11:58;;;;;;;;;;;;;;;23.28;42.43;97007.47;4229110;28;5664;-72
2022/09/10 15:14:01;;;;;;;;;;;;;;;23.28;42.19;97015.56;4229379;28;5751;-73
2022/09/10 15:16:06;;;;;;;;;;;;;;;23.26;42.30;97009.63;4233263;28;5811;-73
2022/09/10 15:18:12;;;;;;;;;;;;;;;23.24;42.38;97008.00;4229281;28;6460;-73
2022/09/10 15:20:16;;;;;;;;;;;;;;;23.24;42.20;97007.22;4229426;28;5806;-73
2022/09/10 15:22:22;;;;;;;;;;;;;;;23.23;42.17;97011.00;4230838;28;5656;-73
2022/09/10 15:24:25;;;;;;;;;;;;;;;23.23;42.19;97011.78;4224270;28;5641;-72
2022/09/10 15:26:27;;;;;;;;;;;;;;;23.23;42.03;96998.31;4231365;28;5650;-73
2022/09/10 15:28:30;;;;;;;;;;;;;;;23.25;41.87;96998.03;4233090;28;5653;-75
2022/09/10 15:30:34;;;;;;;;;;;;;;;23.23;42.20;97001.00;4233062;28;5661;-75
2022/09/10 15:32:39;;;;;;;;;;;;;;;23.20;41.96;96998.81;4231119;28;5649;-75
2022/09/10 15:34:42;;;;;;;;;;;;;;;23.22;41.98;96995.88;4231618;28;5236;-75
2022/09/10 15:36:46;;;;;;;;;;;;;;;23.22;42.13;97002.09;4228831;28;5664;-71
2022/09/10 15:38:52;;;;;;;;;;;;;;;23.24;42.08;96999.13;4232586;28;5641;-75
2022/09/10 15:41:06;;;;;;;;;;;;;;;23.25;41.88;96992.66;4233088;28;5676;-75
2022/09/10 15:43:09;;;;;;;;;;;;;;;23.24;41.73;96994.53;4229786;28;5664;-75
2022/09/10 15:45:12;;;;;;;;;;;;;;;23.24;41.88;96999.13;4232489;28;5725;-75
2022/09/10 15:47:15;;;;;;;;;;;;;;;23.25;41.75;96995.34;4232856;28;5829;-75
2022/09/10 15:49:19;;;;;;;;;;;;;;;23.26;42.33;96985.34;4232640;28;5645;-75
2022/09/10 15:51:23;;;;;;;;;;;;;;;23.23;41.76;96997.50;4232969;28;5766;-70
2022/09/10 15:53:26;;;;;;;;;;;;;;;23.22;42.22;96996.69;4232305;28;5747;-72
2022/09/10 15:55:29;;;;;;;;;;;;;;;23.21;42.40;96994.25;4232917;28;5657;-71
2022/09/10 15:57:32;;;;;;;;;;;;;;;23.21;42.40;97000.44;4231533;28;5641;-72
2022/09/10 15:59:35;;;;;;;;;;;;;;;23.22;42.43;96991.31;4222909;28;5750;-72
2022/09/10 16:01:38;;;;;;;;;;;;;;;23.23;42.29;96995.63;4229188;28;5649;-67
2022/09/10 16:03:45;;;;;;;;;;;;;;;23.22;42.13;96999.38;4230499;28;5736;-67
2022/09/10 16:05:49;;;;;;;;;;;;;;;23.21;42.03;96989.66;4232589;27;5637;-68
2022/09/10 16:07:52;;;;;;;;;;;;;;;23.19;42.46;96994.50;4232588;28;5633;-74
2022/09/10 16:09:56;;;;;;;;;;;;;;;23.19;42.52;96991.81;4231703;28;5696;-76
2022/09/10 16:12:00;;;;;;;;;;;;;;;23.17;42.53;96993.16;4232546;28;5645;-74
2022/09/10 16:14:07;;;;;;;;;;;;;;;23.14;42.60;96999.91;4232739;28;6346;-77
2022/09/10 16:16:12;;;;;;;;;;;;;;;23.10;42.35;96990.72;4232818;28;5648;-73
2022/09/10 16:18:14;;;;;;;;;;;;;;;23.10;42.42;96998.81;4232861;28;5723;-75
2022/09/10 16:20:19;;;;;;;;;;;;;;;23.09;42.25;96993.69;4227837;28;5653;-68
2022/09/10 16:22:23;;;;;;;;;;;;;;;23.08;42.40;96995.56;4232709;28;5764;-68
2022/09/10 16:24:26;;;;;;;;;;;;;;;23.04;42.53;96991.81;4232379;28;5667;-68
2022/09/10 16:26:31;;;;;;;;;;;;;;;23.05;42.30;96995.31;4232006;28;5645;-68
2022/09/10 16:28:34;;;;;;;;;;;;;;;23.02;41.84;96991.28;4232616;28;5732;-69
2022/09/10 16:30:37;;;;;;;;;;;;;;;22.98;42.12;96997.44;4232108;27;5641;-74
2022/09/10 16:32:40;;;;;;;;;;;;;;;22.94;42.24;96994.47;4232436;28;5641;-74
2022/09/10 16:34:42;;;;;;;;;;;;;;;22.93;41.94;96992.88;4233705;28;5653;-73
2022/09/10 16:36:47;;;;;;;;;;;;;;;22.91;42.00;96997.72;4235980;28;5654;-73
2022/09/10 16:38:54;;;;;;;;;;;;;;;22.91;42.23;96997.72;4235200;28;5649;-73
2022/09/10 16:41:00;;;;;;;;;;;;;;;22.90;41.71;97005.00;4235941;28;6508;-73
2022/09/10 16:43:04;;;;;;;;;;;;;;;22.88;41.72;96999.06;4235904;28;5653;-78
2022/09/10 16:45:08;;;;;;;;;;;;;;;22.86;41.62;96995.00;4234343;28;5612;-80
2022/09/10 16:47:13;;;;;;;;;;;;;;;22.87;41.53;97010.09;4235936;28;5732;-78
2022/09/10 16:49:18;;;;;;;;;;;;;;;22.87;41.64;96999.31;4235611;28;5638;-78
2022/09/10 16:51:23;;;;;;;;;;;;;;;22.88;41.90;97000.97;4230924;28;5714;-76
2022/09/10 16:53:26;;;;;;;;;;;;;;;22.88;41.90;97004.47;4234347;28;6309;-76
2022/09/10 16:55:31;;;;;;;;;;;;;;;22.87;41.93;97004.72;4235544;28;5765;-75
2022/09/10 16:57:33;;;;;;;;;;;;;;;22.86;41.42;97001.19;4235570;28;5648;-74
2022/09/10 16:59:36;;;;;;;;;;;;;;;22.85;41.63;97002.28;4234879;28;5673;-74
2022/09/10 17:01:39;;;;;;;;;;;;;;;22.83;41.46;97003.59;4231584;28;5657;-74
2022/09/10 17:03:43;;;;;;;;;;;;;;;22.82;41.85;97007.38;4228157;28;5744;-76
2022/09/10 17:05:46;;;;;;;;;;;;;;;22.84;41.42;97003.34;4235232;28;5794;-76
2022/09/10 17:07:49;;;;;;;;;;;;;;;22.84;41.62;97005.25;4231447;28;5649;-75
2022/09/10 17:09:51;;;;;;;;;;;;;;;22.85;41.55;97004.16;4228704;28;5747;-68
2022/09/10 17:12:00;;;;;;;;;;;;;;;22.83;41.62;97004.44;4231896;28;5641;-68
2022/09/10 17:14:03;;;;;;;;;;;;;;;22.82;41.77;97004.69;4235308;28;5888;-68
2022/09/10 17:16:14;;;;;;;;;;;;;;;22.81;41.74;97011.16;4235358;28;6777;-68
2022/09/10 17:18:17;;;;;;;;;;;;;;;22.79;41.26;97007.91;4235449;28;5649;-68
2022/09/10 17:20:19;;;;;;;;;;;;;;;22.77;41.47;97008.19;4231495;28;5653;-69
2022/09/10 17:22:22;;;;;;;;;;;;;;;22.76;41.25;96998.44;4235572;28;5646;-68
2022/09/10 17:24:26;;;;;;;;;;;;;;;22.75;41.22;97006.81;4235225;28;5732;-68
2022/09/10 17:26:32;;;;;;;;;;;;;;;22.75;41.79;97006.81;4230144;28;5824;-68
2022/09/10 17:28:36;;;;;;;;;;;;;;;22.77;41.29;97004.69;4233555;28;5608;-67
2022/09/10 17:30:39;;;;;;;;;;;;;;;22.77;41.45;97010.06;4234814;27;5761;-67
2022/09/10 17:32:41;;;;;;;;;;;;;;;22.76;41.49;97008.41;4234869;28;5858;-67
2022/09/10 17:34:45;;;;;;;;;;;;;;;22.74;41.70;97011.38;4235176;28;5792;-67
2022/09/10 17:36:49;;;;;;;;;;;;;;;22.76;41.42;97013.81;4235301;28;5965;-68
2022/09/10 17:38:52;;;;;;;;;;;;;;;22.74;41.67;97007.88;4235269;28;5832;-68
2022/09/10 17:40:57;;;;;;;;;;;;;;;22.74;41.41;97006.00;4230963;28;5952;-80
2022/09/10 17:43:00;;;;;;;;;;;;;;;22.75;41.36;97012.19;4226374;28;5758;-80
2022/09/10 17:45:05;;;;;;;;;;;;;;;22.75;41.46;97009.50;4229205;27;5733;-77
2022/09/10 17:47:08;;;;;;;;;;;;;;;22.75;41.53;97012.19;4232302;28;5818;-78
2022/09/10 17:49:13;;;;;;;;;;;;;;;22.73;41.55;97012.47;4224897;28;5792;-77
2022/09/10 17:51:19;;;;;;;;;;;;;;;22.72;41.54;97005.47;4224369;28;5833;-79
2022/09/10 17:53:22;;;;;;;;;;;;;;;22.71;41.51;97011.13;4227925;28;5845;-78
2022/09/10 17:55:25;;;;;;;;;;;;;;;22.70;41.31;97025.66;4232231;28;5869;-81
2022/09/10 17:57:34;;;;;;;;;;;;;;;22.65;41.65;97024.59;4224229;28;5740;-67
2022/09/10 17:59:38;;;;;;;;;;;;;;;22.66;41.76;97020.00;4225162;28;5661;-71
2022/09/10 18:01:42;;;;;;;;;;;;;;;22.66;41.81;97022.69;4222329;28;5763;-70
2022/09/10 18:03:45;;;;;;;;;;;;;;;22.65;41.79;97024.59;4223859;28;5750;-67
2022/09/10 18:05:48;;;;;;;;;;;;;;;22.65;41.73;97021.88;4226942;28;5759;-68
2022/09/10 18:07:51;;;;;;;;;;;;;;;22.66;41.43;97025.41;4228790;28;5852;-66
2022/09/10 18:09:53;;;;;;;;;;;;;;;22.67;41.47;97032.41;4227534;28;5637;-69
2022/09/10 18:11:56;;;;;;;;;;;;;;;22.65;41.71;97035.38;4228918;28;5872;-68
2022/09/10 18:14:00;;;;;;;;;;;;;;;22.64;41.75;97028.31;4224255;28;5657;-66
2022/09/10 18:16:06;;;;;;;;;;;;;;;22.64;41.84;97041.78;4225143;28;5672;-66
2022/09/10 18:18:10;;;;;;;;;;;;;;;22.63;41.92;97037.50;4220344;28;5767;-69
2022/09/10 18:20:13;;;;;;;;;;;;;;;22.63;41.48;97033.97;4229220;28;5771;-66
2022/09/10 18:22:16;;;;;;;;;;;;;;;22.63;41.52;97042.06;4225002;28;5716;-66
2022/09/10 18:24:21;;;;;;;;;;;;;;;22.64;41.51;97049.88;4225789;28;5776;-66
2022/09/10 18:26:26;;;;;;;;;;;;;;;22.63;41.47;97048.25;4227619;28;5664;-65
2022/09/10 18:28:28;;;;;;;;;;;;;;;22.62;41.81;97051.22;4226666;28;5657;-70
2022/09/10 18:30:31;;;;;;;;;;;;;;;22.61;41.51;97063.06;4228612;28;5760;-67
2022/09/10 18:32:34;;;;;;;;;;;;;;;22.61;41.67;97060.38;4226321;28;5847;-72
2022/09/10 18:34:38;;;;;;;;;;;;;;;22.59;41.59;97063.34;4225957;28;5803;-73
2022/09/10 18:36:42;;;;;;;;;;;;;;;22.60;41.89;97064.16;4226160;28;5747;-70
2022/09/10 18:38:46;;;;;;;;;;;;;;;22.59;41.38;97068.72;4220155;28;5888;-68
2022/09/10 18:40:49;;;;;;;;;;;;;;;22.59;41.83;97071.44;4225919;28;5668;-68
2022/09/10 18:42:51;;;;;;;;;;;;;;;22.59;41.51;97078.72;4217649;28;5753;-70
2022/09/10 18:44:54;;;;;;;;;;;;;;;22.58;41.60;97071.69;4229779;28;5645;-75
2022/09/10 18:46:57;;;;;;;;;;;;;;;22.56;41.88;97079.25;4231546;28;5815;-73
2022/09/10 18:49:00;;;;;;;;;;;;;;;22.55;41.84;97083.00;4226380;28;5803;-73
2022/09/10 18:51:07;;;;;;;;;;;;;;;22.54;41.93;97076.81;4225798;28;5656;-69
2022/09/10 18:53:11;;;;;;;;;;;;;;;22.54;41.86;97081.38;4217794;28;5670;-67
2022/09/10 18:55:14;;;;;;;;;;;;;;;22.54;41.55;97084.91;4218097;28;5786;-67
2022/09/10 18:57:17;;;;;;;;;;;;;;;22.53;41.46;97085.94;4222223;28;5848;-65
2022/09/10 18:59:21;;;;;;;;;;;;;;;22.52;41.56;97086.22;4227907;28;5822;-67
2022/09/10 19:01:27;;;;;;;;;;;;;;;22.51;41.65;97087.28;4227648;28;5817;-68
2022/09/10 19:03:34;;;;;;;;;;;;;;;22.49;41.53;97084.84;4223620;28;7380;-69
2022/09/10 19:05:37;;;;;;;;;;;;;;;22.50;41.63;97094.56;4222952;28;5727;-68
2022/09/10 19:07:41;;;;;;;;;;;;;;;22.50;41.76;97097.25;4227788;28;5650;-71
2022/09/10 19:09:44;;;;;;;;;;;;;;;22.50;41.37;97097.25;4219059;28;5835;-70
2022/09/10 19:11:49;;;;;;;;;;;;;;;22.50;41.49;97097.25;4228635;28;5665;-72
2022/09/10 19:13:54;;;;;;;;;;;;;;;22.51;41.72;97103.44;4215978;28;5882;-70
2022/09/10 19:15:58;;;;;;;;;;;;;;;22.49;41.82;97101.00;4228647;28;7726;-69
2022/09/10 19:18:01;;;;;;;;;;;;;;;22.49;41.69;97106.41;4224201;28;5903;-69
2022/09/10 19:20:09;;;;;;;;;;;;;;;22.48;41.80;97104.78;4224096;28;5692;-68
2022/09/10 19:22:12;;;;;;;;;;;;;;;22.49;41.59;97114.50;4231122;28;5772;-68
2022/09/10 19:24:18;;;;;;;;;;;;;;;22.49;41.65;97117.19;4221025;28;5917;-70
2022/09/10 19:26:35;;;;;;;;;;;;;;;22.49;41.56;97114.50;4221255;28;5663;-71
2022/09/10 19:28:39;;;;;;;;;;;;;;;22.49;41.98;97117.19;4218492;28;5761;-70
2022/09/10 19:30:42;;;;;;;;;;;;;;;22.49;41.54;97121.75;4223968;28;5777;-71
2022/09/10 19:32:45;;;;;;;;;;;;;;;22.47;41.73;97130.09;4222154;28;5656;-69
2022/09/10 19:34:49;;;;;;;;;;;;;;;22.47;41.72;97119.31;4223628;28;5719;-70
2022/09/10 19:36:52;;;;;;;;;;;;;;;22.46;41.73;97128.47;4224051;28;5679;-70
2022/09/10 19:38:55;;;;;;;;;;;;;;;22.46;41.58;97127.69;4226550;28;5677;-71
2022/09/10 19:41:08;;;;;;;;;;;;;;;22.46;41.76;97124.97;4230513;28;5858;-70